• Join FlightAware (Why Join?)
  • Login
  • US Flag 
08:55AM EDT


 

Airport Tracker/Info


-or-


 

Live Flight TrackerFlight Track Log ✈ N803UA ✈ 05-May-2012 ✈ KDEN - KLAX

Flight Track Log - Related Links

Times and Time Zones

All times are in EDT time to prevent confusion due to time zone crossing. See the N803UA flight status page for this flight to view local times or setup timezone preferences in your user account.

Time Position Orientation Groundspeed Altitude Reporting Facility
EDT Latitude Longitude Course Direction KTS MPH feet Rate Location/Type
12:06PM 39.8084 -104.6528 288° West  Level FlightAware Approximate
12:07PM 39.8333 -104.7500 250° West 176 203 6,700  Level Denver TRACON
12:12PM 39.6975 -105.2292 245° Southwest 346 398 19,000 2,520 Climbing Denver Center
12:13PM 39.6550 -105.3458 243° Southwest 351 404 21,900 2,400 Climbing Denver Center
12:14PM 39.6061 -105.4706 245° Southwest 351 404 23,900 1,980 Climbing Denver Center
12:15PM 39.5631 -105.5897 248° West 356 410 25,900 1,800 Climbing Denver Center
12:16PM 39.5244 -105.7142 250° West 368 423 27,500 1,680 Climbing Denver Center
12:17PM 39.4878 -105.8464 250° West 380 437 29,300 1,560 Climbing Denver Center
12:18PM 39.4528 -105.9731 249° West 389 448 30,700 1,440 Climbing Denver Center
12:19PM 39.4139 -106.1050 251° West 389 448 32,200 1,500 Climbing Denver Center
12:20PM 39.3767 -106.2422 251° West 394 453 33,800 1,500 Climbing Denver Center
12:21PM 39.3433 -106.3658 250° West 389 448 35,200 1,080 Climbing Denver Center
12:22PM 39.3100 -106.4839 249° West 382 440 36,000 360 Climbing Denver Center
12:23PM 39.2661 -106.6314 243° Southwest 400 460 36,000  Level Denver Center
12:24PM 39.2139 -106.7625 232° Southwest 410 472 36,000  Level Denver Center
12:25PM 39.1447 -106.8775 231° Southwest 415 478 36,000 -60 Level Denver Center
12:26PM 39.0817 -106.9786 231° Southwest 415 478 35,900 -60 Descending Denver Center
12:27PM 39.0039 -107.1036 231° Southwest 410 472 35,900  Level Denver Center
12:28PM 38.9344 -107.2153 232° Southwest 410 472 36,000  Climbing Denver Center
12:29PM 38.8647 -107.3292 233° Southwest 415 478 36,000  Level Denver Center
12:30PM 38.8036 -107.4322 238° Southwest 415 478 36,000  Level Denver Center
12:31PM 38.7378 -107.5669 239° Southwest 415 478 36,000  Level Denver Center
12:32PM 38.6800 -107.6911 238° Southwest 415 478 36,000 -60 Level Denver Center
12:33PM 38.6203 -107.8150 238° Southwest 410 472 35,900  Descending Denver Center
12:34PM 38.5647 -107.9281 239° Southwest 415 478 36,000  Climbing Denver Center
12:35PM 38.5069 -108.0489 238° Southwest 415 478 36,000  Level Denver Center
12:36PM 38.4422 -108.1828 239° Southwest 410 472 36,000  Level Denver Center
12:37PM 38.3842 -108.3083 236° Southwest 410 472 36,000  Level Denver Center
12:38PM 38.3281 -108.4153 240° Southwest 411 473 36,000  Level Denver Center
12:39PM 38.2717 -108.5381 238° Southwest 411 473 36,000  Level Denver Center
12:40PM 38.2067 -108.6708 238° Southwest 411 473 36,000 -60 Level Denver Center
12:41PM 38.1481 -108.7881 238° Southwest 406 467 35,900  Descending Denver Center
12:42PM 38.0958 -108.8944 238° Southwest 406 467 36,000  Climbing Denver Center
12:43PM 38.0392 -109.0083 239° Southwest 397 457 36,000  Level Denver Center
12:44PM 37.9756 -109.1406 238° Southwest 397 457 36,000  Level Denver Center
12:45PM 37.9164 -109.2619 238° Southwest 397 457 36,000  Level Denver Center
12:46PM 37.8658 -109.3650 237° Southwest 402 463 36,000 -60 Level Denver Center
12:47PM 37.8000 -109.4911 238° Southwest 402 463 35,900  Descending Denver Center
12:48PM 37.7406 -109.6119 237° Southwest 395 455 36,000  Climbing Denver Center
12:49PM 37.6811 -109.7275 238° Southwest 400 460 36,000  Level Denver Center
12:50PM 37.6278 -109.8350 237° Southwest 400 460 36,000  Level Denver Center
12:51PM 37.5614 -109.9631 237° Southwest 400 460 36,000  Level Denver Center
12:52PM 37.5036 -110.0753 238° Southwest 400 460 36,000  Level Denver Center
12:53PM 37.4503 -110.1825 233° Southwest 400 460 36,000  Level Denver Center
12:54PM 37.3775 -110.3039 237° Southwest 400 460 36,000 -60 Level Denver Center
12:55PM 37.3192 -110.4183 237° Southwest 400 460 35,900 -60 Descending Denver Center
12:56PM 37.2611 -110.5300 237° Southwest 394 453 35,900  Level Denver Center
12:57PM 37.2028 -110.6414 236° Southwest 384 442 36,000  Climbing Denver Center
12:58PM 37.1558 -110.7297 237° Southwest 384 442 36,000  Level Denver Center
12:59PM 37.0928 -110.8536 237° Southwest 384 442 36,000  Level Denver Center
01:00PM 37.0342 -110.9669 237° Southwest 384 442 36,000  Level Denver Center
01:01PM 36.9756 -111.0778 236° Southwest 389 448 36,000 -60 Level Denver Center
01:02PM 36.9167 -111.1883 238° Southwest 389 448 35,900  Descending Denver Center
01:02PM 36.8692 -111.2839 236° Southwest 390 449 36,000  Climbing Los Angeles Center
01:03PM 36.8086 -111.3939 236° Southwest 372 428 36,000  Level Los Angeles Center
01:04PM 36.7503 -111.5036 237° Southwest 377 434 36,000 -60 Level Los Angeles Center
01:05PM 36.7036 -111.5917 237° Southwest 382 440 35,900 -60 Descending Los Angeles Center
01:06PM 36.6392 -111.7144 235° Southwest 382 440 35,900  Level Los Angeles Center
01:07PM 36.5786 -111.8239 237° Southwest 387 445 36,000  Climbing Los Angeles Center
01:08PM 36.5178 -111.9383 236° Southwest 392 451 36,000  Level Los Angeles Center
01:09PM 36.4550 -112.0525 236° Southwest 392 451 36,000  Level Los Angeles Center
01:10PM 36.3919 -112.1667 237° Southwest 398 458 36,000  Level Los Angeles Center
01:11PM 36.3253 -112.2964 243° Southwest 403 464 36,000  Level Los Angeles Center
01:12PM 36.2767 -112.4144 242° Southwest 403 464 36,000 -60 Level Los Angeles Center
01:13PM 36.2239 -112.5353 241° Southwest 403 464 35,900 -60 Descending Los Angeles Center
01:14PM 36.1711 -112.6536 244° Southwest 403 464 35,900  Level Los Angeles Center
01:15PM 36.1222 -112.7764 242° Southwest 403 464 35,900  Level Los Angeles Center
01:16PM 36.0753 -112.8836 241° Southwest 398 458 36,000  Climbing Los Angeles Center
01:17PM 36.0219 -113.0039 242° Southwest 398 458 36,000  Level Los Angeles Center
01:18PM 35.9708 -113.1242 241° Southwest 398 458 36,000  Level Los Angeles Center
01:19PM 35.9172 -113.2414 241° Southwest 398 458 36,000  Level Los Angeles Center
01:20PM 35.8636 -113.3611 241° Southwest 398 458 36,000  Level Los Angeles Center
01:21PM 35.8039 -113.4939 241° Southwest 398 458 36,000  Level Los Angeles Center
01:22PM 35.7522 -113.6106 241° Southwest 398 458 36,000  Level Los Angeles Center
01:23PM 35.6983 -113.7325 241° Southwest 398 458 36,000  Level Los Angeles Center
01:24PM 35.6464 -113.8492 241° Southwest 403 464 36,000  Level Los Angeles Center
01:25PM 35.5922 -113.9681 240° Southwest 396 456 36,000  Level Los Angeles Center
01:26PM 35.5378 -114.0844 241° Southwest 396 456 36,000  Level Los Angeles Center
01:27PM 35.4856 -114.2006 241° Southwest 396 456 36,000  Level Los Angeles Center
01:28PM 35.4331 -114.3164 241° Southwest 398 458 36,000  Level Los Angeles Center
01:29PM 35.3803 -114.4322 240° Southwest 392 451 36,000  Level Los Angeles Center
01:30PM 35.3256 -114.5506 240° Southwest 397 457 36,000  Level Los Angeles Center
01:31PM 35.2706 -114.6661 241° Southwest 397 457 36,000  Level Los Angeles Center
01:32PM 35.2178 -114.7839 239° Southwest 397 457 36,000  Level Los Angeles Center
01:33PM 35.1625 -114.8967 241° Southwest 397 457 36,000  Level Los Angeles Center
01:34PM 35.1094 -115.0142 240° Southwest 397 457 36,000  Level Los Angeles Center
01:35PM 35.0561 -115.1267 239° Southwest 397 457 36,000  Level Los Angeles Center
01:36PM 35.0131 -115.2158 241° Southwest 397 457 36,000  Level Los Angeles Center
01:37PM 34.9533 -115.3483 240° Southwest 403 464 36,000 -120 Level Los Angeles Center
01:38PM 34.8958 -115.4678 238° Southwest 390 449 35,800 -540 Descending Los Angeles Center
01:39PM 34.8419 -115.5744 242° Southwest 393 452 35,000 -900 Descending Los Angeles Center
01:40PM 34.7903 -115.6914 239° Southwest 404 465 34,000 -1,020 Descending Los Angeles Center
01:41PM 34.7322 -115.8078 241° Southwest 404 465 33,000 -1,020 Descending Los Angeles Center
01:42PM 34.6803 -115.9217 240° Southwest 404 465 32,000 -1,020 Descending Los Angeles Center
01:43PM 34.6219 -116.0431 241° Southwest 404 465 31,000 -1,020 Descending Los Angeles Center
01:44PM 34.5678 -116.1617 240° Southwest 404 465 30,000 -1,020 Descending Los Angeles Center
01:45PM 34.5092 -116.2825 240° Southwest 410 472 29,000 -1,020 Descending Los Angeles Center
01:46PM 34.4506 -116.4033 240° Southwest 415 478 28,000 -1,020 Descending Los Angeles Center
01:47PM 34.3917 -116.5267 239° Southwest 421 484 27,000 -1,020 Descending Los Angeles Center
01:48PM 34.3308 -116.6494 239° Southwest 421 484 26,000 -1,080 Descending Los Angeles Center
01:49PM 34.2717 -116.7672 243° Southwest 426 490 24,900 -2,100 Descending Los Angeles Center
01:50PM 34.2167 -116.9000 239° Southwest 420 483 21,800 -3,000 Descending Los Angeles Center
01:51PM 34.1575 -117.0200 234° Southwest 414 476 18,900 -2,160 Descending Los Angeles Center
01:52PM 34.1000 -117.1167 248° West 366 421 17,700 -1,380 Descending Southern California TRACON
01:53PM 34.0667 -117.2167 251° West 346 398 16,300 -1,500 Descending Southern California TRACON
01:54PM 34.0333 -117.3333 270° West 342 394 14,700 -1,440 Descending Southern California TRACON
01:55PM 34.0333 -117.4500 259° West 331 381 13,500 -1,200 Descending Southern California TRACON
01:56PM 34.0167 -117.5500 270° West 295 339 12,300 -1,320 Descending Southern California TRACON
01:57PM 34.0167 -117.6500 259° West 292 336 10,900 -1,440 Descending Southern California TRACON
01:58PM 34.0000 -117.7500 270° West 283 326 9,300 -1,440 Descending Southern California TRACON
01:59PM 34.0000 -117.8333 256° West 286 329 8,000 -1,260 Descending Southern California TRACON
02:00PM 33.9833 -117.9167 270° West 269 310 6,900 -1,140 Descending Southern California TRACON
02:01PM 33.9833 -118.0000 256° West 237 273 5,800 -960 Descending Southern California TRACON
02:02PM 33.9667 -118.0833 270° West 232 267 5,000 -1,020 Descending Southern California TRACON
02:03PM 33.9667 -118.1667 253° West 239 275 3,800 -1,080 Descending Southern California TRACON
02:04PM 33.9500 -118.2333 253° West 197 227 2,900 -900 Descending Southern California TRACON